createdAt,value
2019-03-31T00:01:07.976Z,98.72
2019-03-31T00:03:32.862Z,97.15
2019-03-31T00:06:03.277Z,99.62
2019-03-31T00:08:33.515Z,97.82
2019-03-31T00:11:03.815Z,98.03
2019-03-31T00:13:34.530Z,95.32
2019-03-31T00:16:05.639Z,93.90
2019-03-31T00:18:35.969Z,96.95
2019-03-31T00:21:06.559Z,96.35
2019-03-31T00:23:38.481Z,90.30
2019-03-31T00:26:08.872Z,95.03
2019-03-31T00:28:39.112Z,90.50
2019-03-31T00:31:21.570Z,96.22
2019-03-31T00:33:41.604Z,92.53
2019-03-31T00:36:12.431Z,95.60
2019-03-31T00:38:43.212Z,97.05
2019-03-31T00:41:13.443Z,90.85
2019-03-31T00:43:43.683Z,91.90
2019-03-31T00:46:14.001Z,89.85
2019-03-31T00:48:44.340Z,94.50
2019-03-31T00:51:14.638Z,94.60
2019-03-31T00:53:44.837Z,94.37
2019-03-31T00:56:15.130Z,94.47
2019-03-31T00:58:45.719Z,92.30
2019-03-31T01:01:17.675Z,88.52
2019-03-31T01:03:49.593Z,94.03
2019-03-31T01:06:21.266Z,91.72
2019-03-31T01:08:52.924Z,89.45
2019-03-31T01:11:24.404Z,92.25
2019-03-31T01:13:54.967Z,89.32
2019-03-31T01:16:27.299Z,87.88
2019-03-31T01:18:57.952Z,91.87
2019-03-31T01:21:28.282Z,90.28
2019-03-31T01:23:58.532Z,88.85
2019-03-31T01:26:30.166Z,90.75
2019-03-31T01:29:00.901Z,88.62
2019-03-31T01:31:32.132Z,86.82
2019-03-31T01:34:02.952Z,86.00
2019-03-31T01:36:33.532Z,87.65
2019-03-31T01:39:05.344Z,87.37
2019-03-31T01:41:37.135Z,84.90
2019-03-31T01:44:07.418Z,91.50
2019-03-31T01:46:37.709Z,86.78
2019-03-31T01:49:08.044Z,89.13
2019-03-31T01:51:38.268Z,88.33
2019-03-31T01:54:08.588Z,87.12
2019-03-31T01:56:38.885Z,88.42
2019-03-31T01:59:09.147Z,84.60
2019-03-31T02:01:40.784Z,83.50
2019-03-31T02:04:11.305Z,86.00
2019-03-31T02:06:41.944Z,88.65
2019-03-31T02:09:12.722Z,87.30
2019-03-31T02:11:43.139Z,92.70
2019-03-31T02:14:13.459Z,93.72
2019-03-31T02:16:45.466Z,92.12
2019-03-31T02:19:16.796Z,90.97
2019-03-31T02:21:47.382Z,90.10
2019-03-31T02:24:21.391Z,89.85
2019-03-31T02:26:51.717Z,91.90
2019-03-31T02:29:21.972Z,88.85
2019-03-31T02:31:52.209Z,87.37
2019-03-31T02:34:22.452Z,86.00
2019-03-31T02:36:52.769Z,85.50
2019-03-31T02:39:23.025Z,86.63
2019-03-31T02:41:53.252Z,87.70
2019-03-31T02:44:23.477Z,84.65
2019-03-31T02:46:54.104Z,85.75
2019-03-31T02:49:25.301Z,88.20
2019-03-31T02:51:55.623Z,82.10
2019-03-31T02:54:27.183Z,80.95
2019-03-31T02:56:58.492Z,84.07
2019-03-31T02:59:32.437Z,83.37
2019-03-31T03:02:04.457Z,83.70
2019-03-31T03:04:37.018Z,86.22
2019-03-31T03:07:10.315Z,85.83
2019-03-31T03:09:44.249Z,65.03
2019-03-31T03:12:16.097Z,83.65
2019-03-31T03:14:49.360Z,82.47
2019-03-31T03:17:19.614Z,77.93
2019-03-31T03:19:49.849Z,81.35
2019-03-31T03:22:20.112Z,82.22
2019-03-31T03:24:51.374Z,81.22
2019-03-31T03:27:21.983Z,80.12
2019-03-31T03:29:52.719Z,82.78
2019-03-31T03:32:23.198Z,78.95
2019-03-31T03:34:53.694Z,80.50
2019-03-31T03:37:25.490Z,81.08
2019-03-31T03:39:56.212Z,77.25
2019-03-31T03:42:26.858Z,78.20
2019-03-31T03:44:57.151Z,78.92
2019-03-31T03:47:27.771Z,80.60
2019-03-31T03:49:58.127Z,79.17
2019-03-31T03:52:28.332Z,76.90
2019-03-31T03:54:58.575Z,75.12
2019-03-31T03:57:29.165Z,76.65
2019-03-31T03:59:59.489Z,75.80
2019-03-31T04:02:29.752Z,75.87
2019-03-31T04:05:01.490Z,78.37
2019-03-31T04:07:31.820Z,76.75
2019-03-31T04:10:02.077Z,75.10
2019-03-31T04:12:33.724Z,73.80
2019-03-31T04:15:04.467Z,75.30
2019-03-31T04:17:36.181Z,78.52
2019-03-31T04:20:07.416Z,77.85
2019-03-31T04:22:39.277Z,76.28
2019-03-31T04:25:11.257Z,74.72
2019-03-31T04:27:41.946Z,74.82
2019-03-31T04:30:12.629Z,76.65
2019-03-31T04:32:42.939Z,72.87
2019-03-31T04:35:13.210Z,76.50
2019-03-31T04:37:43.783Z,77.37
2019-03-31T04:40:14.492Z,70.65
2019-03-31T04:42:44.779Z,74.58
2019-03-31T04:45:15.091Z,75.87
2019-03-31T04:47:47.253Z,77.20
2019-03-31T04:50:17.561Z,73.90
2019-03-31T04:52:47.806Z,76.10
2019-03-31T04:55:18.097Z,72.72
2019-03-31T04:57:48.432Z,73.78
2019-03-31T05:00:18.761Z,74.95
2019-03-31T05:02:49.021Z,97.05
2019-03-31T05:05:19.282Z,104.32
2019-03-31T05:07:49.870Z,100.38
2019-03-31T05:10:20.175Z,97.92
2019-03-31T05:12:50.401Z,97.67
2019-03-31T05:15:20.708Z,95.42
2019-03-31T05:17:50.976Z,102.65
2019-03-31T05:20:21.615Z,105.35
2019-03-31T05:22:52.915Z,103.30
2019-03-31T05:25:24.007Z,107.72
2019-03-31T05:27:56.286Z,82.65
2019-03-31T05:30:26.957Z,84.15
2019-03-31T05:32:57.230Z,93.85
2019-03-31T05:35:27.845Z,88.15
2019-03-31T05:37:58.157Z,96.22
2019-03-31T05:40:30.745Z,80.90
2019-03-31T05:43:00.803Z,84.72
2019-03-31T05:45:31.511Z,65.97
2019-03-31T05:48:01.908Z,65.22
2019-03-31T05:50:32.500Z,60.60
2019-03-31T05:53:02.870Z,61.08
2019-03-31T05:55:33.079Z,59.48
2019-03-31T05:58:03.827Z,57.53
2019-03-31T06:00:37.211Z,54.27
2019-03-31T06:03:07.820Z,51.90
2019-03-31T06:05:38.655Z,53.28
2019-03-31T06:08:10.396Z,53.90
2019-03-31T06:10:41.012Z,52.50
2019-03-31T06:13:11.378Z,54.40
2019-03-31T06:15:41.617Z,52.45
2019-03-31T06:18:11.882Z,52.88
2019-03-31T06:20:42.622Z,52.03
2019-03-31T06:23:12.927Z,50.98
2019-03-31T06:25:43.225Z,51.28
2019-03-31T06:28:14.986Z,52.50
2019-03-31T06:30:45.705Z,51.70
2019-03-31T06:33:15.996Z,50.17
2019-03-31T06:35:46.667Z,50.63
2019-03-31T06:38:18.991Z,50.03
2019-03-31T06:40:56.796Z,49.88
2019-03-31T06:43:27.451Z,48.78
2019-03-31T06:45:59.036Z,48.80
2019-03-31T06:48:29.640Z,48.70
2019-03-31T06:51:01.001Z,46.28
2019-03-31T06:53:31.609Z,46.88
2019-03-31T06:56:02.276Z,46.68
2019-03-31T06:58:32.975Z,48.45
2019-03-31T07:01:03.629Z,45.95
2019-03-31T07:03:33.930Z,46.18
2019-03-31T07:06:04.152Z,45.15
2019-03-31T07:08:34.819Z,45.65
2019-03-31T07:11:05.460Z,42.35
2019-03-31T07:13:36.039Z,42.90
2019-03-31T07:16:06.348Z,43.05
2019-03-31T07:18:36.598Z,42.93
2019-03-31T07:21:06.838Z,41.08
2019-03-31T07:23:37.494Z,40.78
2019-03-31T07:26:08.110Z,40.20
2019-03-31T07:28:38.714Z,38.67
2019-03-31T07:31:09.359Z,38.70
2019-03-31T07:33:39.668Z,38.33
2019-03-31T07:36:09.896Z,38.83
2019-03-31T07:38:40.516Z,36.95
2019-03-31T07:41:12.916Z,38.13
2019-03-31T07:43:43.095Z,38.65
2019-03-31T07:46:13.823Z,38.38
2019-03-31T07:48:45.783Z,38.02
2019-03-31T07:51:18.130Z,33.55
2019-03-31T07:53:48.742Z,32.58
2019-03-31T07:56:19.061Z,32.48
2019-03-31T07:58:50.412Z,33.78
2019-03-31T08:01:22.065Z,33.00
2019-03-31T08:03:52.365Z,32.70
2019-03-31T08:06:22.946Z,31.37
2019-03-31T08:08:53.628Z,31.60
2019-03-31T08:11:24.313Z,30.23
2019-03-31T08:13:55.954Z,31.05
2019-03-31T08:16:26.150Z,30.70
2019-03-31T08:18:57.814Z,28.65
2019-03-31T08:21:28.482Z,29.23
2019-03-31T08:23:58.785Z,27.07
2019-03-31T08:26:29.073Z,26.87
2019-03-31T08:28:59.763Z,25.88
2019-03-31T08:31:30.527Z,25.82
2019-03-31T08:34:00.858Z,25.05
2019-03-31T08:36:31.089Z,24.18
2019-03-31T08:39:01.382Z,24.85
2019-03-31T08:41:33.484Z,23.95
2019-03-31T08:44:05.808Z,23.07
2019-03-31T08:46:36.817Z,22.50
2019-03-31T08:49:08.758Z,23.60
2019-03-31T08:51:39.468Z,23.35
2019-03-31T08:54:10.149Z,23.18
2019-03-31T08:56:40.438Z,21.80
2019-03-31T08:59:11.231Z,20.92
2019-03-31T09:01:42.543Z,21.90
2019-03-31T09:04:12.867Z,22.05
2019-03-31T09:06:43.151Z,22.77
2019-03-31T09:09:13.369Z,22.20
2019-03-31T09:11:43.705Z,22.80
2019-03-31T09:14:14.418Z,21.52
2019-03-31T09:16:45.183Z,21.25
2019-03-31T09:19:15.489Z,23.75
2019-03-31T09:21:46.087Z,23.45
2019-03-31T09:24:16.444Z,21.82
2019-03-31T09:26:48.720Z,22.82
2019-03-31T09:29:19.467Z,24.55
2019-03-31T09:31:50.998Z,24.95
2019-03-31T09:34:21.363Z,25.35
2019-03-31T09:36:51.643Z,25.68
2019-03-31T09:39:22.242Z,25.30
2019-03-31T09:41:52.911Z,26.50
2019-03-31T09:44:23.562Z,25.82
2019-03-31T09:46:54.255Z,26.35
2019-03-31T09:49:24.927Z,24.87
2019-03-31T09:51:55.217Z,24.65
2019-03-31T09:54:25.459Z,24.85
2019-03-31T09:56:55.760Z,23.75
2019-03-31T09:59:26.011Z,23.50
2019-03-31T10:01:56.604Z,23.85
2019-03-31T10:04:27.322Z,24.47
2019-03-31T10:06:58.170Z,24.65
2019-03-31T10:09:28.533Z,24.27
2019-03-31T10:11:59.619Z,24.00
2019-03-31T10:14:29.939Z,22.95
2019-03-31T10:17:00.179Z,24.85
2019-03-31T10:19:30.457Z,24.37
2019-03-31T10:22:01.884Z,23.67
2019-03-31T10:24:32.510Z,23.60
2019-03-31T10:27:03.529Z,22.80
2019-03-31T10:29:35.499Z,23.10
2019-03-31T10:32:06.887Z,22.93
2019-03-31T10:34:38.836Z,22.93
2019-03-31T10:37:09.155Z,22.17
2019-03-31T10:39:39.745Z,22.13
2019-03-31T10:42:10.069Z,20.72
2019-03-31T10:44:40.294Z,21.33
2019-03-31T10:47:12.215Z,21.42
2019-03-31T10:49:42.739Z,21.62
2019-03-31T10:52:13.056Z,21.75
2019-03-31T10:54:43.642Z,22.90
2019-03-31T10:57:14.430Z,23.02
2019-03-31T10:59:46.260Z,21.87
2019-03-31T11:02:16.856Z,22.15
2019-03-31T11:04:47.312Z,22.17
2019-03-31T11:07:17.539Z,22.65
2019-03-31T11:09:47.984Z,23.32
2019-03-31T11:12:18.256Z,24.50
2019-03-31T11:14:48.913Z,25.12
2019-03-31T11:17:19.527Z,24.85
2019-03-31T11:19:50.090Z,26.57
2019-03-31T11:22:35.596Z,27.27
2019-03-31T11:25:20.297Z,27.20
2019-03-31T11:27:43.696Z,25.75
2019-03-31T11:30:13.658Z,26.95
2019-03-31T11:32:43.965Z,25.70
2019-03-31T11:35:14.361Z,24.27
2019-03-31T11:37:44.631Z,23.90
2019-03-31T11:40:15.239Z,25.52
2019-03-31T11:42:45.487Z,25.97
2019-03-31T11:45:16.676Z,28.38
2019-03-31T11:47:46.898Z,28.23
2019-03-31T11:50:17.605Z,26.15
2019-03-31T11:52:47.872Z,29.55
2019-03-31T11:55:18.122Z,29.60
2019-03-31T11:57:48.377Z,30.05
2019-03-31T12:00:24.829Z,31.17
2019-03-31T12:02:55.208Z,30.97
2019-03-31T12:05:25.830Z,31.62
2019-03-31T12:07:56.212Z,30.68
2019-03-31T12:10:26.446Z,31.68
2019-03-31T12:12:56.701Z,31.80
2019-03-31T12:15:26.941Z,32.90
2019-03-31T12:17:57.178Z,33.23
2019-03-31T12:20:27.790Z,34.10
2019-03-31T12:22:58.218Z,32.83
2019-03-31T12:25:28.457Z,33.70
2019-03-31T12:27:58.769Z,33.28
2019-03-31T12:30:29.146Z,32.08
2019-03-31T12:33:00.912Z,33.65
2019-03-31T12:35:31.201Z,34.98
2019-03-31T12:38:01.907Z,35.00
2019-03-31T12:40:34.626Z,35.25
2019-03-31T12:43:05.463Z,33.15
2019-03-31T12:45:35.830Z,33.48
2019-03-31T12:48:06.563Z,34.85
2019-03-31T12:50:36.898Z,35.28
2019-03-31T12:53:07.215Z,35.38
2019-03-31T12:55:37.512Z,36.25
2019-03-31T12:58:07.764Z,36.80
2019-03-31T13:00:37.987Z,34.78
2019-03-31T13:03:09.201Z,30.50
2019-03-31T13:05:39.457Z,32.93
2019-03-31T13:08:10.058Z,32.50
2019-03-31T13:10:41.867Z,29.32
2019-03-31T13:13:12.618Z,30.80
2019-03-31T13:15:42.990Z,29.23
2019-03-31T13:18:15.119Z,29.42
2019-03-31T13:20:45.499Z,28.80
2019-03-31T13:23:16.106Z,28.67
2019-03-31T13:25:46.422Z,29.32
2019-03-31T13:28:16.657Z,30.15
2019-03-31T13:30:46.911Z,30.20
2019-03-31T13:33:17.138Z,33.23
2019-03-31T13:35:47.803Z,31.55
2019-03-31T13:38:18.517Z,30.30
2019-03-31T13:40:50.595Z,30.57
2019-03-31T13:43:21.251Z,32.00
2019-03-31T13:45:51.504Z,30.62
2019-03-31T13:48:21.728Z,30.92
2019-03-31T13:50:51.978Z,31.60
2019-03-31T13:53:22.232Z,32.17
2019-03-31T13:55:52.480Z,30.82
2019-03-31T13:58:23.545Z,29.25
2019-03-31T14:00:57.070Z,29.75
2019-03-31T14:03:26.443Z,29.20
2019-03-31T14:05:56.706Z,26.73
2019-03-31T14:08:26.950Z,26.23
2019-03-31T14:10:57.193Z,24.05
2019-03-31T14:13:27.454Z,22.85
2019-03-31T14:15:57.854Z,23.05
2019-03-31T14:18:28.169Z,21.73
2019-03-31T14:20:58.742Z,21.73
2019-03-31T14:23:31.733Z,23.05
2019-03-31T14:26:02.040Z,23.40
2019-03-31T14:28:32.673Z,22.80
2019-03-31T14:31:03.330Z,20.08
2019-03-31T14:33:34.130Z,19.45
2019-03-31T14:36:04.491Z,18.02
2019-03-31T14:38:40.372Z,16.77
2019-03-31T14:41:06.768Z,15.68
2019-03-31T14:43:36.989Z,15.10
2019-03-31T14:46:07.619Z,15.65
2019-03-31T14:48:38.305Z,14.90
2019-03-31T14:51:08.699Z,13.65
2019-03-31T14:53:39.312Z,14.25
2019-03-31T14:56:09.639Z,13.25
2019-03-31T14:58:39.963Z,12.88
2019-03-31T15:01:10.301Z,11.48
2019-03-31T15:03:40.890Z,11.57
2019-03-31T15:06:11.568Z,11.40
2019-03-31T15:08:53.767Z,11.08
2019-03-31T15:11:13.819Z,11.70
2019-03-31T15:13:44.071Z,11.03
2019-03-31T15:16:14.299Z,11.40
2019-03-31T15:18:44.607Z,11.57
2019-03-31T15:21:14.825Z,11.45
2019-03-31T15:23:45.095Z,11.70
2019-03-31T15:26:15.722Z,10.72
2019-03-31T15:28:46.017Z,10.98
2019-03-31T15:31:16.635Z,10.45
2019-03-31T15:33:47.310Z,10.28
2019-03-31T15:36:18.021Z,9.80
2019-03-31T15:38:48.357Z,10.80
2019-03-31T15:41:21.442Z,9.85
2019-03-31T15:43:50.682Z,9.85
2019-03-31T15:46:24.389Z,9.63
2019-03-31T15:48:52.834Z,8.88
2019-03-31T15:51:23.426Z,8.30
2019-03-31T15:53:54.870Z,6.92
2019-03-31T15:56:25.233Z,7.58
2019-03-31T15:58:55.623Z,8.10
2019-03-31T16:01:26.264Z,7.97
2019-03-31T16:03:56.577Z,7.00
2019-03-31T16:06:26.930Z,6.78
2019-03-31T16:08:57.194Z,7.55
2019-03-31T16:11:27.413Z,8.75
2019-03-31T16:13:57.662Z,8.23
2019-03-31T16:16:30.613Z,7.42
2019-03-31T16:18:59.923Z,6.80
2019-03-31T16:21:30.327Z,7.65
2019-03-31T16:24:01.847Z,7.17
2019-03-31T16:26:32.064Z,6.53
2019-03-31T16:29:02.677Z,6.08
2019-03-31T16:31:33.059Z,6.03
2019-03-31T16:34:03.302Z,4.83
2019-03-31T16:36:33.525Z,5.35
2019-03-31T16:39:05.629Z,6.17
2019-03-31T16:41:36.146Z,6.28
2019-03-31T16:44:06.389Z,5.22
2019-03-31T16:46:39.801Z,6.20
2019-03-31T16:49:08.970Z,6.37
2019-03-31T16:51:39.865Z,5.85
2019-03-31T16:54:10.088Z,6.78
2019-03-31T16:56:40.322Z,5.80
2019-03-31T16:59:10.597Z,6.15
2019-03-31T17:01:41.187Z,5.62
2019-03-31T17:04:11.511Z,5.75
2019-03-31T17:06:41.768Z,6.33
2019-03-31T17:09:11.995Z,5.50
2019-03-31T17:11:43.024Z,5.67
2019-03-31T17:14:13.339Z,6.05
2019-03-31T17:16:43.561Z,6.33
2019-03-31T17:19:13.781Z,6.95
2019-03-31T17:21:44.058Z,6.47
2019-03-31T17:24:14.637Z,7.10
2019-03-31T17:26:44.928Z,8.38
2019-03-31T17:29:15.172Z,7.80
2019-03-31T17:31:47.293Z,6.42
2019-03-31T17:34:17.985Z,6.65
2019-03-31T17:36:48.271Z,7.30
2019-03-31T17:39:18.893Z,6.90
2019-03-31T17:41:49.530Z,7.85
2019-03-31T17:44:19.829Z,7.75
2019-03-31T17:46:50.065Z,8.93
2019-03-31T17:49:21.047Z,9.70
2019-03-31T17:51:51.702Z,9.43
2019-03-31T17:54:21.995Z,12.73
2019-03-31T17:56:52.274Z,12.98
2019-03-31T17:59:22.850Z,13.68
2019-03-31T18:01:53.128Z,14.33
2019-03-31T18:04:23.364Z,16.50
2019-03-31T18:06:57.130Z,17.23
2019-03-31T18:09:27.785Z,16.55
2019-03-31T18:11:58.063Z,16.65
2019-03-31T18:14:28.306Z,16.48
2019-03-31T18:16:58.529Z,15.50
2019-03-31T18:19:29.312Z,12.88
2019-03-31T18:22:00.007Z,11.63
2019-03-31T18:24:30.286Z,11.50
2019-03-31T18:27:00.554Z,10.58
2019-03-31T18:29:32.086Z,10.48
2019-03-31T18:32:03.290Z,9.80
2019-03-31T18:34:33.574Z,10.35
2019-03-31T18:37:04.156Z,9.40
2019-03-31T18:39:34.444Z,8.08
2019-03-31T18:42:04.748Z,7.72
2019-03-31T18:44:35.014Z,8.08
2019-03-31T18:47:05.386Z,8.80
2019-03-31T18:49:35.419Z,9.50
2019-03-31T18:52:06.703Z,8.35
2019-03-31T18:54:38.579Z,7.22
2019-03-31T18:57:10.800Z,7.00
2019-03-31T18:59:54.793Z,6.30
2019-03-31T19:02:29.688Z,6.47
2019-03-31T19:05:04.350Z,5.85
2019-03-31T19:07:52.644Z,5.92
2019-03-31T19:10:27.013Z,5.20
2019-03-31T19:13:05.018Z,5.50
2019-03-31T19:15:53.524Z,4.78
2019-03-31T19:18:25.798Z,4.42
2019-03-31T19:21:11.352Z,4.45
2019-03-31T19:23:59.879Z,4.60
2019-03-31T19:26:48.776Z,4.30
2019-03-31T19:29:18.704Z,4.55
2019-03-31T19:31:53.270Z,4.55
2019-03-31T19:34:34.271Z,4.15
2019-03-31T19:37:06.575Z,3.55
2019-03-31T19:39:42.491Z,4.03
2019-03-31T19:42:12.881Z,4.62
2019-03-31T19:44:44.667Z,4.72
2019-03-31T19:47:16.971Z,3.80
2019-03-31T19:49:51.900Z,3.72
2019-03-31T19:52:40.568Z,4.03
2019-03-31T19:55:18.273Z,4.65
2019-03-31T19:58:05.396Z,5.40
2019-03-31T20:00:49.611Z,4.70
2019-03-31T20:03:40.121Z,4.90
2019-03-31T20:06:16.350Z,4.58
2019-03-31T20:08:51.498Z,3.42
2019-03-31T20:11:26.316Z,3.22
2019-03-31T20:14:01.317Z,3.67
2019-03-31T20:16:39.824Z,3.08
2019-03-31T20:19:27.401Z,3.45
2019-03-31T20:22:10.913Z,3.80
2019-03-31T20:24:45.837Z,2.85
2019-03-31T20:27:18.117Z,3.47
2019-03-31T20:30:04.925Z,3.77
2019-03-31T20:32:43.088Z,3.55
2019-03-31T20:35:15.378Z,3.72
2019-03-31T20:38:04.104Z,3.60
2019-03-31T20:40:36.089Z,4.47
2019-03-31T20:43:15.142Z,3.00
2019-03-31T20:45:45.525Z,4.20
2019-03-31T20:48:16.135Z,3.35
2019-03-31T20:50:47.729Z,3.12
2019-03-31T20:53:17.948Z,3.42
2019-03-31T20:55:48.239Z,3.08
2019-03-31T20:58:18.570Z,2.90
2019-03-31T21:00:49.021Z,3.25
2019-03-31T21:03:19.614Z,3.00
2019-03-31T21:05:49.902Z,3.17
2019-03-31T21:08:20.162Z,3.20
2019-03-31T21:10:50.723Z,2.95
2019-03-31T21:13:21.750Z,3.50
2019-03-31T21:15:52.335Z,3.08
2019-03-31T21:18:23.017Z,3.33
2019-03-31T21:20:53.645Z,3.62
2019-03-31T21:23:24.055Z,3.90
2019-03-31T21:25:54.663Z,4.65
2019-03-31T21:28:24.970Z,5.50
2019-03-31T21:30:55.158Z,4.65
2019-03-31T21:33:25.832Z,3.75
2019-03-31T21:35:56.134Z,3.60
2019-03-31T21:38:26.748Z,3.65
2019-03-31T21:40:57.427Z,3.50
2019-03-31T21:43:27.801Z,4.17
2019-03-31T21:45:58.015Z,3.45
2019-03-31T21:48:28.289Z,3.47
2019-03-31T21:50:58.522Z,3.77
2019-03-31T21:53:28.747Z,4.15
2019-03-31T21:55:59.092Z,4.33
2019-03-31T21:58:29.356Z,3.35
2019-03-31T22:01:00.535Z,3.42
2019-03-31T22:03:31.858Z,3.90
2019-03-31T22:06:02.110Z,3.35
2019-03-31T22:08:32.363Z,3.45
2019-03-31T22:11:02.962Z,3.85
2019-03-31T22:13:33.261Z,4.00
2019-03-31T22:16:03.566Z,3.75
2019-03-31T22:18:33.862Z,3.92
2019-03-31T22:21:04.085Z,3.90
2019-03-31T22:23:34.768Z,4.37
2019-03-31T22:26:05.134Z,4.67
2019-03-31T22:28:37.410Z,4.70
2019-03-31T22:31:08.026Z,6.22
2019-03-31T22:33:38.274Z,5.40
2019-03-31T22:36:25.168Z,6.00
2019-03-31T22:38:55.457Z,5.35
2019-03-31T22:41:25.706Z,5.78
2019-03-31T22:43:55.932Z,4.90
2019-03-31T22:46:26.180Z,4.83
2019-03-31T22:48:56.740Z,4.50
2019-03-31T22:51:27.372Z,4.87
2019-03-31T22:53:57.721Z,4.65
2019-03-31T22:56:27.923Z,3.87
2019-03-31T22:58:58.193Z,4.97
2019-03-31T23:01:28.743Z,5.25
2019-03-31T23:03:59.057Z,5.05
2019-03-31T23:06:29.297Z,5.83
2019-03-31T23:08:59.543Z,6.53
2019-03-31T23:11:30.112Z,6.65
2019-03-31T23:14:00.455Z,6.47
2019-03-31T23:16:30.684Z,5.90
2019-03-31T23:19:00.893Z,5.67
2019-03-31T23:21:31.476Z,6.60
2019-03-31T23:24:01.769Z,6.58
2019-03-31T23:26:32.424Z,7.15
2019-03-31T23:29:02.703Z,7.05
2019-03-31T23:31:33.302Z,6.47
2019-03-31T23:34:03.662Z,6.45
2019-03-31T23:36:34.315Z,6.50
2019-03-31T23:39:07.935Z,6.35
2019-03-31T23:41:38.229Z,5.37
2019-03-31T23:44:08.491Z,5.85
2019-03-31T23:46:38.760Z,4.90
2019-03-31T23:49:09.022Z,5.00
2019-03-31T23:51:39.287Z,4.53
2019-03-31T23:54:09.548Z,4.37
2019-03-31T23:56:39.782Z,4.50
2019-03-31T23:59:10.037Z,4.80
